KOGB 071510Z 0715/0812 27005KT P6SM SKC
FM071600 26012G18KT P6SM SCT035 BKN250
FM072200 28012G18KT P6SM VCTS SCT040CB BKN100
From batch tds/tafs/production/2023/6/7/h15_m19_tafs.cache.xml
Issued (12 months ago)
Forecasts
0715/0716 27005KT P6SM SKC

---
fcst_time_to: '2023-06-07T16:00:00Z'
sky_condition:
- sky_cover: SKC
wind_speed_kt: '5'
fcst_time_from: '2023-06-07T15:00:00Z'
wind_dir_degrees: '270'
visibility_statute_mi: '6.21'

FM071600 26012G18KT P6SM SCT3500 BKN25000

---
fcst_time_to: '2023-06-07T22:00:00Z'
wind_gust_kt: '18'
sky_condition:
- - sky_cover: SCT
    cloud_base_ft_agl: '3500'
- - sky_cover: BKN
    cloud_base_ft_agl: '25000'
wind_speed_kt: '12'
fcst_time_from: '2023-06-07T16:00:00Z'
change_indicator: FM
wind_dir_degrees: '260'
visibility_statute_mi: '6.21'

FM072200 28012G18KT P6SM SCTCB4000 BKN10000

---
wx_string: VCTS
fcst_time_to: '2023-06-08T12:00:00Z'
wind_gust_kt: '18'
sky_condition:
- - sky_cover: SCT
    cloud_type: CB
    cloud_base_ft_agl: '4000'
- - sky_cover: BKN
    cloud_base_ft_agl: '10000'
wind_speed_kt: '12'
fcst_time_from: '2023-06-07T22:00:00Z'
change_indicator: FM
wind_dir_degrees: '280'
visibility_statute_mi: '6.21'

talk